Time;durP1;ratioP1;P1;durP2;ratioP2;P2;SDS_P1;SDS_P2;PMS_P1;PMS_P2;Temp;Humidity;BMP_temperature;BMP_pressure;BME280_temperature;BME280_humidity;BME280_pressure;Samples;Min_cycle;Max_cycle;Signal;HPM_P1;HPM_P2
2021/12/02 00:00:24;;;;;;;2.08;0.40;;;5.60;99.90;;;;;;5079760;28;20078;-66
2021/12/02 00:02:49;;;;;;;2.78;0.40;;;5.60;99.90;;;;;;5082884;28;20081;-65
2021/12/02 00:05:15;;;;;;;0.98;0.28;;;5.60;99.90;;;;;;5082107;28;20036;-66
2021/12/02 00:07:40;;;;;;;1.85;0.30;;;5.60;99.90;;;;;;5076348;28;20046;-66
2021/12/02 00:10:06;;;;;;;2.38;0.30;;;5.60;99.90;;;;;;5056540;28;20111;-66
2021/12/02 00:12:31;;;;;;;4.53;0.40;;;5.60;99.90;;;;;;5061543;28;20016;-66
2021/12/02 00:15:00;;;;;;;3.60;0.40;;;5.60;99.90;;;;;;5069893;28;20021;-66
2021/12/02 00:17:28;;;;;;;1.85;0.30;;;5.60;99.90;;;;;;5057516;28;20070;-66
2021/12/02 00:23:27;;;;;;;2.65;0.30;;;5.60;99.90;;;;;;5079574;28;20032;-66
2021/12/02 00:25:53;;;;;;;2.72;0.50;;;5.60;99.90;;;;;;5062043;28;20025;-66
2021/12/02 00:28:19;;;;;;;2.00;0.40;;;5.60;99.90;;;;;;5081070;28;20085;-66
2021/12/02 00:30:45;;;;;;;2.40;0.30;;;5.60;99.90;;;;;;5083695;28;20016;-65
2021/12/02 00:33:13;;;;;;;2.55;0.45;;;5.60;99.90;;;;;;5081065;28;20028;-66
2021/12/02 00:35:39;;;;;;;2.45;0.30;;;5.50;99.90;;;;;;5079601;28;20081;-66
2021/12/02 00:38:06;;;;;;;3.85;0.20;;;5.60;99.90;;;;;;5078849;28;20021;-65
2021/12/02 00:40:34;;;;;;;1.85;0.40;;;5.50;99.90;;;;;;5084283;28;20464;-66
2021/12/02 00:43:00;;;;;;;1.50;0.20;;;5.50;99.90;;;;;;5079387;28;20016;-66
2021/12/02 00:45:26;;;;;;;1.67;0.30;;;5.50;99.90;;;;;;5076780;28;20045;-66
2021/12/02 00:47:52;;;;;;;2.25;0.30;;;5.40;99.90;;;;;;5081100;28;20017;-65
2021/12/02 00:50:18;;;;;;;3.33;0.22;;;5.40;99.90;;;;;;5077835;28;20024;-66
2021/12/02 00:52:45;;;;;;;2.30;0.30;;;5.40;99.90;;;;;;5077819;28;20486;-66
2021/12/02 00:55:12;;;;;;;1.48;0.30;;;5.40;99.90;;;;;;5077732;28;20051;-66
2021/12/02 00:57:41;;;;;;;2.67;0.32;;;5.40;99.90;;;;;;5064977;28;20373;-65
2021/12/02 01:00:07;;;;;;;3.13;0.50;;;5.40;99.90;;;;;;5076079;28;20399;-66
2021/12/02 01:02:34;;;;;;;7.57;0.50;;;5.40;99.90;;;;;;5083892;28;20012;-66
2021/12/02 01:05:00;;;;;;;1.20;0.30;;;5.30;99.90;;;;;;5084671;28;20419;-66
2021/12/02 01:07:26;;;;;;;2.08;0.30;;;5.30;99.90;;;;;;5083092;28;20105;-66
2021/12/02 01:09:52;;;;;;;5.40;0.50;;;5.30;99.90;;;;;;5074320;28;20023;-66
2021/12/02 01:12:18;;;;;;;1.02;0.22;;;5.30;99.90;;;;;;5077822;28;20031;-66
2021/12/02 01:14:45;;;;;;;2.60;0.30;;;5.20;99.90;;;;;;5081245;28;20035;-65
2021/12/02 01:17:10;;;;;;;3.58;0.45;;;5.20;99.90;;;;;;5084753;28;20035;-66
2021/12/02 01:19:36;;;;;;;1.27;0.30;;;5.10;99.90;;;;;;5082243;28;20475;-65
2021/12/02 01:22:02;;;;;;;2.92;0.30;;;5.20;99.90;;;;;;5070201;28;20032;-66
2021/12/02 01:24:30;;;;;;;4.97;0.40;;;5.10;99.90;;;;;;5082631;28;20036;-66
2021/12/02 01:26:57;;;;;;;3.00;0.20;;;5.10;99.90;;;;;;5079741;28;20012;-66
2021/12/02 01:29:25;;;;;;;1.33;0.30;;;5.10;99.90;;;;;;5070305;28;20029;-66
2021/12/02 01:31:58;;;;;;;2.10;0.32;;;5.10;99.90;;;;;;5064213;28;20016;-66
2021/12/02 01:34:27;;;;;;;1.23;0.20;;;5.10;99.90;;;;;;5074191;28;20024;-65
2021/12/02 01:36:54;;;;;;;1.45;0.20;;;5.00;99.90;;;;;;5063168;28;20016;-66
2021/12/02 01:39:20;;;;;;;3.38;0.20;;;5.00;99.90;;;;;;5081345;28;20025;-66
2021/12/02 01:41:52;;;;;;;1.17;0.25;;;5.00;99.90;;;;;;5067084;28;20443;-66
2021/12/02 01:44:19;;;;;;;3.25;1.00;;;5.00;99.90;;;;;;5082354;28;20024;-66
2021/12/02 01:46:48;;;;;;;1.00;0.22;;;4.90;99.90;;;;;;5087994;28;20031;-65
2021/12/02 01:49:16;;;;;;;3.60;0.30;;;4.90;99.90;;;;;;5080720;28;20019;-65
2021/12/02 01:51:44;;;;;;;1.58;0.30;;;4.90;99.90;;;;;;5084927;28;20372;-65
2021/12/02 01:54:22;;;;;;;3.90;0.68;;;4.90;99.90;;;;;;5082621;28;20027;-66
2021/12/02 01:57:05;;;;;;;3.22;0.40;;;5.00;99.90;;;;;;5066646;28;20016;-65
2021/12/02 01:59:34;;;;;;;2.50;0.40;;;5.00;99.90;;;;;;5081925;28;20020;-66
2021/12/02 02:02:03;;;;;;;3.33;0.40;;;5.00;99.90;;;;;;5076545;28;20013;-66
2021/12/02 02:04:28;;;;;;;2.10;0.30;;;4.90;99.90;;;;;;5084359;28;20490;-66
2021/12/02 02:07:03;;;;;;;2.60;0.40;;;4.90;99.90;;;;;;5082981;28;20047;-66
2021/12/02 02:09:32;;;;;;;0.95;0.20;;;4.90;99.90;;;;;;5081185;28;20506;-66
2021/12/02 02:12:00;;;;;;;1.65;0.35;;;4.90;99.90;;;;;;5080968;28;20020;-66
2021/12/02 02:14:28;;;;;;;2.38;0.38;;;4.90;99.90;;;;;;5078695;28;20032;-66
2021/12/02 02:16:55;;;;;;;1.95;0.25;;;4.90;99.90;;;;;;5063572;28;20021;-66
2021/12/02 02:19:22;;;;;;;2.70;0.35;;;4.90;99.90;;;;;;5079773;28;20041;-65
2021/12/02 02:21:47;;;;;;;2.15;0.38;;;4.80;99.90;;;;;;5079225;28;20024;-66
2021/12/02 02:24:15;;;;;;;1.95;0.22;;;4.80;99.90;;;;;;5081592;28;20012;-66
2021/12/02 02:26:42;;;;;;;3.13;0.30;;;4.80;99.90;;;;;;5083368;28;20012;-66
2021/12/02 02:29:10;;;;;;;2.90;0.30;;;4.80;99.90;;;;;;5072037;28;20051;-66
2021/12/02 02:31:38;;;;;;;3.40;0.30;;;4.80;99.90;;;;;;5078610;28;20017;-66
2021/12/02 02:34:04;;;;;;;1.25;0.20;;;4.80;99.90;;;;;;5068775;28;20101;-65
2021/12/02 02:36:33;;;;;;;2.25;0.40;;;4.80;99.90;;;;;;5078185;28;20103;-66
2021/12/02 02:38:59;;;;;;;3.65;0.50;;;4.90;99.90;;;;;;5075727;28;20589;-66
2021/12/02 02:41:28;;;;;;;2.63;0.40;;;4.80;99.90;;;;;;5074204;28;20035;-65
2021/12/02 02:43:57;;;;;;;1.95;0.30;;;4.90;99.90;;;;;;5079236;28;20017;-66
2021/12/02 02:46:42;;;;;;;3.40;0.63;;;4.90;99.90;;;;;;5078576;28;20020;-66
2021/12/02 02:49:11;;;;;;;4.10;0.50;;;4.90;99.90;;;;;;5083561;28;20036;-66
2021/12/02 02:51:39;;;;;;;3.65;0.80;;;4.90;99.90;;;;;;5085981;28;20020;-65
2021/12/02 02:54:08;;;;;;;2.22;0.30;;;4.90;99.90;;;;;;5078121;28;20116;-66
2021/12/02 02:56:38;;;;;;;3.73;0.87;;;4.90;99.90;;;;;;5065895;28;20093;-65
2021/12/02 02:59:11;;;;;;;2.00;0.60;;;4.90;99.90;;;;;;5072470;28;20023;-65
2021/12/02 03:01:49;;;;;;;0.80;0.30;;;4.90;99.90;;;;;;5082886;28;20476;-66
2021/12/02 03:04:32;;;;;;;6.80;0.60;;;4.90;99.90;;;;;;5081398;28;20040;-66
2021/12/02 03:07:06;;;;;;;2.28;0.35;;;4.90;99.90;;;;;;5075362;28;20013;-66
2021/12/02 03:12:08;;;;;;;1.80;0.30;;;4.90;99.90;;;;;;5079628;28;20500;-66
2021/12/02 03:17:12;;;;;;;3.40;0.60;;;4.90;99.90;;;;;;5077220;28;20017;-66
2021/12/02 03:19:43;;;;;;;4.07;0.30;;;4.90;99.90;;;;;;5058340;28;20027;-65
2021/12/02 03:22:08;;;;;;;2.22;0.40;;;4.90;99.90;;;;;;5072538;28;20052;-66
2021/12/02 03:24:34;;;;;;;1.63;0.35;;;4.90;99.90;;;;;;5068808;28;20488;-66
2021/12/02 03:27:00;;;;;;;3.25;0.40;;;4.90;99.90;;;;;;5079663;28;20032;-65
2021/12/02 03:29:25;;;;;;;3.42;0.40;;;4.80;99.90;;;;;;5059559;28;20024;-66
2021/12/02 03:31:51;;;;;;;0.95;0.40;;;4.80;99.90;;;;;;5056873;28;20090;-65
2021/12/02 03:34:19;;;;;;;1.75;0.40;;;4.80;99.90;;;;;;5075623;28;20020;-66
2021/12/02 03:36:45;;;;;;;2.17;0.25;;;4.80;99.90;;;;;;5080782;28;20464;-66
2021/12/02 03:39:11;;;;;;;1.05;0.20;;;4.80;99.90;;;;;;5056578;28;20027;-65
2021/12/02 03:41:39;;;;;;;3.28;0.40;;;4.80;99.90;;;;;;5072564;28;20361;-65
2021/12/02 03:44:05;;;;;;;0.60;0.30;;;4.80;99.90;;;;;;5056062;28;20032;-66
2021/12/02 03:46:32;;;;;;;1.65;0.32;;;4.80;99.90;;;;;;5056358;28;20024;-65
2021/12/02 03:48:59;;;;;;;0.35;0.20;;;4.80;99.90;;;;;;5080175;28;20059;-66
2021/12/02 03:51:24;;;;;;;1.52;0.30;;;4.70;99.90;;;;;;5077275;28;20024;-65
2021/12/02 03:53:50;;;;;;;1.55;0.22;;;4.70;99.90;;;;;;5074029;28;20085;-65
2021/12/02 03:56:16;;;;;;;1.10;0.30;;;4.70;99.90;;;;;;5068527;28;20396;-66
2021/12/02 03:58:43;;;;;;;0.82;0.32;;;4.80;99.90;;;;;;5075355;28;20049;-66
2021/12/02 04:01:10;;;;;;;0.98;0.13;;;4.80;99.90;;;;;;5079576;28;20043;-65
2021/12/02 04:03:36;;;;;;;0.50;0.20;;;4.80;99.90;;;;;;5078065;28;20043;-66
2021/12/02 04:06:02;;;;;;;1.55;0.17;;;4.80;99.90;;;;;;5071450;28;20032;-65
2021/12/02 04:08:31;;;;;;;0.82;0.20;;;4.80;99.90;;;;;;5070035;28;20028;-66
2021/12/02 04:11:43;;;;;;;0.30;0.10;;;4.80;99.90;;;;;;5079430;28;20048;-65
2021/12/02 04:16:22;;;;;;;2.47;0.20;;;4.70;99.90;;;;;;5075851;28;20058;-66
2021/12/02 04:18:48;;;;;;;0.47;0.20;;;4.70;99.90;;;;;;5082055;28;20025;-65
2021/12/02 04:21:14;;;;;;;1.70;0.20;;;4.70;99.90;;;;;;5056418;28;20012;-65
2021/12/02 04:23:39;;;;;;;1.10;0.20;;;4.80;99.90;;;;;;5056293;28;20017;-66
2021/12/02 04:26:05;;;;;;;3.53;0.30;;;4.80;99.90;;;;;;5070007;28;20020;-66
2021/12/02 04:28:31;;;;;;;0.60;0.30;;;4.80;99.90;;;;;;5076687;28;20012;-66
2021/12/02 04:30:57;;;;;;;1.98;0.30;;;4.80;99.90;;;;;;5073852;28;20031;-65
2021/12/02 04:33:31;;;;;;;0.85;0.30;;;4.80;99.90;;;;;;5063760;28;20020;-65
2021/12/02 04:35:57;;;;;;;2.20;0.32;;;4.80;99.90;;;;;;5081698;28;20070;-65
2021/12/02 04:38:23;;;;;;;0.70;0.30;;;4.70;99.90;;;;;;5058756;28;20029;-65
2021/12/02 04:40:48;;;;;;;2.00;0.30;;;4.70;99.90;;;;;;5073937;28;20104;-65
2021/12/02 04:43:14;;;;;;;0.93;0.30;;;4.70;99.90;;;;;;5084864;28;20099;-66
2021/12/02 04:45:39;;;;;;;1.10;0.30;;;4.70;99.90;;;;;;5075279;28;20020;-66
2021/12/02 04:48:06;;;;;;;1.40;0.40;;;4.70;99.90;;;;;;5074975;28;20028;-66
2021/12/02 04:50:32;;;;;;;2.08;0.60;;;4.70;99.90;;;;;;5076318;28;20480;-66
2021/12/02 04:52:58;;;;;;;1.13;0.30;;;4.70;99.90;;;;;;5075145;28;20058;-65
2021/12/02 04:55:33;;;;;;;1.45;0.30;;;4.70;99.90;;;;;;5058320;28;20032;-65
2021/12/02 04:57:59;;;;;;;5.22;0.63;;;4.70;99.90;;;;;;5076610;28;20078;-65
2021/12/02 05:00:25;;;;;;;3.40;0.57;;;4.70;99.90;;;;;;5076703;28;20023;-66
2021/12/02 05:02:51;;;;;;;3.60;0.45;;;4.70;99.90;;;;;;5066239;28;20458;-65
2021/12/02 05:05:16;;;;;;;6.60;0.40;;;4.60;99.90;;;;;;5063470;28;20029;-65
2021/12/02 05:07:42;;;;;;;0.60;0.20;;;4.60;99.90;;;;;;5058657;28;20456;-66
2021/12/02 05:10:08;;;;;;;2.15;0.30;;;4.60;99.90;;;;;;5076793;28;20020;-66
2021/12/02 05:12:34;;;;;;;6.07;0.43;;;4.60;99.90;;;;;;5059444;28;20091;-65
2021/12/02 05:15:01;;;;;;;3.13;0.30;;;4.50;99.90;;;;;;5060662;28;20029;-65
2021/12/02 05:17:26;;;;;;;1.75;0.20;;;4.50;99.90;;;;;;5073104;28;20384;-66
2021/12/02 05:19:52;;;;;;;1.40;0.30;;;4.50;99.90;;;;;;5079892;28;20019;-66
2021/12/02 05:22:17;;;;;;;3.35;0.55;;;4.50;99.90;;;;;;5078693;28;20024;-65
2021/12/02 05:24:43;;;;;;;2.08;0.50;;;4.50;99.90;;;;;;5081212;28;20035;-65
2021/12/02 05:27:09;;;;;;;5.00;0.43;;;4.50;99.90;;;;;;5072685;28;20033;-65
2021/12/02 05:29:35;;;;;;;1.80;0.30;;;4.40;99.90;;;;;;5067380;28;20031;-66
2021/12/02 05:32:00;;;;;;;3.38;0.50;;;4.50;99.90;;;;;;5077052;28;20095;-65
2021/12/02 05:34:27;;;;;;;1.08;0.20;;;4.40;99.90;;;;;;5079156;28;20024;-65
2021/12/02 05:36:53;;;;;;;2.45;0.30;;;4.40;99.90;;;;;;5075517;28;20061;-65
2021/12/02 05:39:19;;;;;;;1.88;0.30;;;4.40;99.90;;;;;;5076965;28;20025;-66
2021/12/02 05:41:45;;;;;;;1.45;0.20;;;4.40;99.90;;;;;;5063751;28;20115;-65
2021/12/02 05:44:51;;;;;;;1.05;0.28;;;4.30;99.90;;;;;;5079743;28;20472;-65
2021/12/02 05:47:16;;;;;;;0.73;0.20;;;4.30;99.90;;;;;;5081942;28;20045;-66
2021/12/02 05:49:42;;;;;;;1.95;0.20;;;4.20;99.90;;;;;;5058691;28;20031;-65
2021/12/02 05:52:08;;;;;;;0.55;0.20;;;4.20;99.90;;;;;;5058663;28;20058;-65
2021/12/02 05:54:34;;;;;;;1.90;0.40;;;4.20;99.90;;;;;;5069270;28;20400;-65
2021/12/02 05:56:59;;;;;;;0.70;0.20;;;4.20;99.90;;;;;;5055890;28;20024;-65
2021/12/02 05:59:25;;;;;;;0.73;0.20;;;4.20;99.90;;;;;;5079429;28;20047;-65
2021/12/02 06:01:51;;;;;;;1.60;0.38;;;4.20;99.90;;;;;;5079118;28;20516;-65
2021/12/02 06:04:17;;;;;;;0.43;0.20;;;4.20;99.90;;;;;;5081786;28;20032;-65
2021/12/02 06:06:42;;;;;;;0.82;0.20;;;4.20;99.90;;;;;;5072118;28;20028;-65
2021/12/02 06:09:08;;;;;;;1.55;0.20;;;4.10;99.90;;;;;;5076278;28;20020;-65
2021/12/02 06:11:34;;;;;;;0.30;0.20;;;4.10;99.90;;;;;;5076971;28;20047;-65
2021/12/02 06:14:00;;;;;;;1.02;0.10;;;4.20;99.90;;;;;;5078180;28;20048;-65
2021/12/02 06:16:25;;;;;;;1.17;0.20;;;4.10;99.90;;;;;;5073455;28;20035;-65
2021/12/02 06:18:51;;;;;;;0.88;0.82;;;4.20;99.90;;;;;;5076448;28;20035;-66
2021/12/02 06:21:16;;;;;;;1.13;0.20;;;4.20;99.90;;;;;;5078945;28;20024;-65
2021/12/02 06:23:42;;;;;;;2.75;0.60;;;4.10;99.90;;;;;;5072674;28;20028;-65
2021/12/02 06:26:09;;;;;;;2.50;0.20;;;4.20;99.90;;;;;;5056269;28;20120;-65
2021/12/02 06:28:35;;;;;;;1.10;0.30;;;4.20;99.90;;;;;;5056482;28;20033;-65
2021/12/02 06:31:02;;;;;;;2.25;0.40;;;4.10;99.90;;;;;;5074434;28;20020;-65
2021/12/02 06:33:32;;;;;;;0.95;0.28;;;4.00;99.90;;;;;;5073960;28;20025;-65
2021/12/02 06:36:13;;;;;;;2.05;0.30;;;4.00;99.90;;;;;;5076014;28;20048;-65
2021/12/02 06:38:40;;;;;;;1.55;0.32;;;3.90;99.90;;;;;;5094533;28;20495;-65
2021/12/02 06:41:05;;;;;;;0.60;0.25;;;3.90;99.90;;;;;;5071886;28;20493;-65
2021/12/02 06:43:55;;;;;;;1.05;0.30;;;3.80;99.90;;;;;;5070082;28;20065;-65
2021/12/02 06:49:38;;;;;;;2.70;0.70;;;3.70;99.90;;;;;;5074020;28;20518;-65
2021/12/02 06:52:09;;;;;;;1.77;0.95;;;3.50;99.90;;;;;;5094108;28;20028;-65
2021/12/02 06:54:35;;;;;;;1.77;0.75;;;3.40;99.90;;;;;;5094105;28;20095;-65
2021/12/02 06:57:00;;;;;;;2.53;0.80;;;3.30;99.90;;;;;;5075806;28;20119;-65
2021/12/02 06:59:26;;;;;;;1.35;0.70;;;3.30;99.90;;;;;;5094232;28;20035;-65
2021/12/02 07:01:51;;;;;;;3.30;0.82;;;3.20;99.90;;;;;;5093932;28;20032;-65
2021/12/02 07:04:17;;;;;;;3.53;0.90;;;3.30;99.90;;;;;;5093768;28;20036;-65
2021/12/02 07:06:44;;;;;;;2.65;0.93;;;3.30;99.90;;;;;;5092513;28;20028;-65
2021/12/02 07:09:09;;;;;;;0.68;0.50;;;3.30;99.90;;;;;;5084954;28;20105;-65
2021/12/02 07:11:35;;;;;;;0.90;0.50;;;3.40;99.90;;;;;;5073617;28;20070;-65
2021/12/02 07:14:04;;;;;;;1.77;0.50;;;3.40;99.90;;;;;;5077197;28;20036;-65
2021/12/02 07:16:29;;;;;;;1.17;0.50;;;3.30;99.90;;;;;;5074873;28;20051;-66
2021/12/02 07:18:57;;;;;;;0.77;0.43;;;3.30;99.90;;;;;;5075412;28;20020;-65
2021/12/02 07:21:24;;;;;;;2.33;0.40;;;3.30;99.90;;;;;;5093676;28;20012;-65
2021/12/02 07:23:51;;;;;;;2.88;0.70;;;3.30;99.90;;;;;;5093479;28;20026;-65
2021/12/02 07:26:16;;;;;;;1.73;0.60;;;3.30;99.90;;;;;;5075278;28;20365;-65
2021/12/02 07:28:45;;;;;;;1.98;0.70;;;3.30;99.90;;;;;;5075424;28;20077;-65
2021/12/02 07:31:12;;;;;;;3.88;1.00;;;3.30;99.90;;;;;;5092471;28;20032;-65
2021/12/02 07:33:39;;;;;;;2.10;0.88;;;3.30;99.90;;;;;;5087789;28;20031;-65
2021/12/02 07:36:05;;;;;;;3.55;1.00;;;3.30;99.90;;;;;;5089866;28;20012;-65
2021/12/02 07:38:32;;;;;;;2.90;0.80;;;3.20;99.90;;;;;;5091623;28;20028;-65
2021/12/02 07:41:03;;;;;;;2.67;0.70;;;3.20;99.90;;;;;;5073431;28;20524;-65
2021/12/02 07:43:34;;;;;;;1.67;0.65;;;3.20;99.90;;;;;;5073481;28;20263;-65
2021/12/02 07:46:00;;;;;;;3.45;0.90;;;3.20;99.90;;;;;;5091350;28;20024;-65
2021/12/02 07:48:26;;;;;;;1.58;0.70;;;3.20;99.90;;;;;;5087632;28;20028;-65
2021/12/02 07:50:55;;;;;;;3.58;0.77;;;3.30;99.90;;;;;;5073095;28;20463;-66
2021/12/02 07:53:24;;;;;;;3.47;0.77;;;3.30;99.90;;;;;;5073786;28;20379;-65
2021/12/02 07:55:51;;;;;;;2.42;0.65;;;3.30;99.90;;;;;;5092141;28;20024;-66
2021/12/02 07:58:17;;;;;;;1.48;0.70;;;3.30;99.90;;;;;;5091040;28;20456;-65
2021/12/02 08:04:38;;;;;;;1.50;0.40;;;3.40;99.90;;;;;;5082040;28;20032;-66
2021/12/02 08:07:03;;;;;;;0.82;0.38;;;3.50;99.90;;;;;;5051650;28;20059;-66
2021/12/02 08:09:29;;;;;;;3.08;0.80;;;3.50;99.90;;;;;;5092081;28;20495;-66
2021/12/02 08:11:58;;;;;;;1.15;0.40;;;3.50;99.90;;;;;;5092655;28;20081;-66
2021/12/02 08:14:24;;;;;;;2.20;0.60;;;3.60;99.90;;;;;;5074618;28;20024;-66
2021/12/02 08:16:49;;;;;;;5.15;1.02;;;3.60;99.90;;;;;;5074588;28;20097;-66
2021/12/02 08:19:15;;;;;;;4.57;0.80;;;3.60;99.90;;;;;;5092498;28;20081;-66
2021/12/02 08:21:54;;;;;;;4.60;0.88;;;3.70;99.90;;;;;;5074421;28;20016;-66
2021/12/02 08:27:50;;;;;;;2.63;0.40;;;3.70;99.90;;;;;;5028643;28;20262;-66
2021/12/02 08:30:17;;;;;;;3.28;0.57;;;3.60;99.90;;;;;;5082672;28;20123;-65
2021/12/02 08:32:45;;;;;;;2.95;0.40;;;3.60;99.90;;;;;;5086138;28;20476;-66
2021/12/02 08:38:31;;;;;;;1.85;0.30;;;3.60;99.90;;;;;;5091444;28;20032;-66
2021/12/02 08:40:58;;;;;;;2.60;0.25;;;3.50;99.90;;;;;;5090994;28;20024;-65
2021/12/02 08:43:24;;;;;;;2.95;0.65;;;3.60;99.90;;;;;;5079878;28;20032;-66
2021/12/02 08:45:50;;;;;;;1.60;0.40;;;3.60;99.90;;;;;;5068348;28;20044;-66
2021/12/02 08:48:16;;;;;;;2.42;0.45;;;3.60;99.90;;;;;;5073561;28;20071;-66
2021/12/02 08:50:42;;;;;;;2.60;0.60;;;3.60;99.90;;;;;;5091114;28;20371;-65
2021/12/02 08:53:09;;;;;;;2.90;0.60;;;3.70;99.90;;;;;;5088896;28;20081;-65
2021/12/02 08:55:35;;;;;;;3.67;0.80;;;3.70;99.90;;;;;;5068073;28;20028;-65
2021/12/02 08:58:03;;;;;;;3.55;0.70;;;3.70;99.90;;;;;;5069703;28;20386;-65
2021/12/02 09:01:28;;;;;;;;;;;;;;;;;;;;;
2021/12/02 09:03:54;;;;;;;1.30;0.65;;;4.00;99.90;;;;;;5091931;28;20391;-65
2021/12/02 09:06:32;;;;;;;3.33;0.60;;;3.90;99.90;;;;;;5094136;28;20051;-65
2021/12/02 09:08:58;;;;;;;2.40;0.40;;;3.90;99.90;;;;;;5088233;28;20020;-65
2021/12/02 09:11:26;;;;;;;2.08;0.22;;;3.90;99.90;;;;;;5095085;28;20016;-65
2021/12/02 09:13:56;;;;;;;1.67;0.40;;;3.90;99.90;;;;;;5095381;28;20078;-65
2021/12/02 09:16:22;;;;;;;;;;;3.80;99.90;;;;;;5087820;28;20132;-65
2021/12/02 09:18:47;;;;;;;1.90;0.80;;;3.80;99.90;;;;;;5088350;28;19983;-65
2021/12/02 09:21:44;;;;;;;1.73;0.50;;;3.80;99.90;;;;;;5072348;28;20022;-65
2021/12/02 09:27:48;;;;;;;2.78;0.80;;;3.90;99.90;;;;;;5011401;28;20036;-65
2021/12/02 09:30:14;;;;;;;3.25;0.82;;;4.00;99.90;;;;;;5075281;28;20024;-65
2021/12/02 09:32:40;;;;;;;1.55;0.85;;;4.10;99.90;;;;;;5057208;28;20033;-65
2021/12/02 09:37:59;;;;;;;2.42;1.02;;;4.40;99.90;;;;;;5095286;28;20454;-65
2021/12/02 09:40:25;;;;;;;3.95;0.88;;;4.50;99.90;;;;;;5077282;28;20028;-65
2021/12/02 09:42:50;;;;;;;2.53;0.50;;;4.60;99.90;;;;;;5077158;28;20024;-65
2021/12/02 09:49:19;;;;;;;2.65;0.40;;;5.10;99.90;;;;;;5081230;28;20541;-65
2021/12/02 09:54:26;;;;;;;1.35;0.70;;;5.90;99.90;;;;;;5094332;28;20404;-65
2021/12/02 09:56:55;;;;;;;1.25;0.50;;;6.40;99.90;;;;;;5092086;28;20448;-65
2021/12/02 09:59:49;;;;;;;4.72;1.02;;;6.60;99.90;;;;;;5094781;28;20028;-65
2021/12/02 10:02:38;;;;;;;2.53;0.70;;;6.50;99.90;;;;;;5076670;28;20482;-65
2021/12/02 10:05:08;;;;;;;1.75;0.80;;;6.30;99.90;;;;;;5076040;28;20068;-65
2021/12/02 10:12:49;;;;;;;2.88;0.70;;;6.20;99.90;;;;;;5052895;28;20043;-66
2021/12/02 10:14:37;;;;;;;2.38;0.60;;;6.20;99.90;;;;;;5013901;28;20026;-65
2021/12/02 10:17:10;;;;;;;1.30;0.60;;;6.30;99.90;;;;;;5076181;28;20019;-65
2021/12/02 10:19:59;;;;;;;3.38;0.47;;;6.70;99.70;;;;;;5094653;28;20047;-65
2021/12/02 10:22:24;;;;;;;3.00;0.75;;;7.30;99.50;;;;;;5091687;28;20480;-64
2021/12/02 10:24:59;;;;;;;3.40;0.90;;;7.90;98.30;;;;;;5096162;28;20348;-65
2021/12/02 10:27:58;;;;;;;;;;;;;;;;;;;;;
2021/12/02 10:30:24;;;;;;;2.17;0.77;;;8.90;96.10;;;;;;5011981;28;20038;-65
2021/12/02 10:32:51;;;;;;;2.65;0.55;;;9.20;95.30;;;;;;5042459;28;20590;-65
2021/12/02 10:38:51;;;;;;;2.13;0.43;;;9.30;94.80;;;;;;5006197;28;20072;-65
2021/12/02 10:45:04;;;;;;;1.35;0.35;;;9.60;94.00;;;;;;4932082;28;20030;-66
2021/12/02 10:47:30;;;;;;;2.47;0.57;;;9.90;93.20;;;;;;5005474;28;20033;-65
2021/12/02 10:50:13;;;;;;;2.25;0.50;;;10.30;92.60;;;;;;5052547;28;20024;-66
2021/12/02 10:52:39;;;;;;;1.55;0.50;;;10.50;91.30;;;;;;5094136;28;20032;-66
2021/12/02 10:55:07;;;;;;;1.85;0.55;;;10.50;91.10;;;;;;5093865;28;20078;-66
2021/12/02 10:58:02;;;;;;;3.25;0.50;;;10.20;91.20;;;;;;5092121;28;20063;-66
2021/12/02 11:00:31;;;;;;;2.00;0.47;;;9.80;91.30;;;;;;5093838;28;20099;-66
2021/12/02 11:03:07;;;;;;;1.73;0.52;;;9.40;91.20;;;;;;5092782;28;20024;-66
2021/12/02 11:05:33;;;;;;;1.90;0.47;;;9.20;91.60;;;;;;5092643;28;20095;-66
2021/12/02 11:08:04;;;;;;;2.03;0.70;;;9.00;91.90;;;;;;5093552;28;20476;-67
2021/12/02 11:10:46;;;;;;;1.33;0.40;;;8.80;91.80;;;;;;5093636;28;20032;-66
2021/12/02 11:13:26;;;;;;;2.85;0.50;;;8.70;91.90;;;;;;5075582;28;20412;-66
2021/12/02 11:15:52;;;;;;;1.85;0.40;;;8.50;92.10;;;;;;5093679;28;20028;-66
2021/12/02 11:18:21;;;;;;;1.40;0.50;;;8.70;92.70;;;;;;5075429;28;20467;-65
2021/12/02 11:20:57;;;;;;;3.33;0.35;;;9.50;93.00;;;;;;5093655;28;20020;-66
2021/12/02 11:23:30;;;;;;;1.77;0.30;;;10.70;92.30;;;;;;5093442;28;20024;-66
2021/12/02 11:25:59;;;;;;;0.57;0.20;;;11.50;90.60;;;;;;5093095;28;20076;-66
2021/12/02 11:28:28;;;;;;;2.10;0.30;;;11.40;87.60;;;;;;5075086;28;20024;-65
2021/12/02 11:30:54;;;;;;;1.08;0.30;;;11.20;87.10;;;;;;5093295;28;20028;-65
2021/12/02 11:33:20;;;;;;;1.42;0.30;;;11.10;87.10;;;;;;5093356;28;20040;-65
2021/12/02 11:35:47;;;;;;;0.70;0.30;;;10.90;86.90;;;;;;5092471;28;20521;-65
2021/12/02 11:38:21;;;;;;;1.27;0.30;;;10.60;86.50;;;;;;5093237;28;20105;-65
2021/12/02 11:40:50;;;;;;;1.13;0.35;;;10.20;87.30;;;;;;5093122;28;20133;-65
2021/12/02 11:43:19;;;;;;;1.90;0.30;;;9.70;88.50;;;;;;5093249;28;20041;-65
2021/12/02 11:45:49;;;;;;;1.17;0.45;;;9.30;89.80;;;;;;5093298;28;20495;-65
2021/12/02 11:48:19;;;;;;;0.57;0.20;;;9.00;90.20;;;;;;5093256;28;20028;-65
2021/12/02 11:50:46;;;;;;;1.98;0.30;;;8.60;90.60;;;;;;5075070;28;20028;-65
2021/12/02 11:53:29;;;;;;;0.73;0.20;;;8.40;91.10;;;;;;5092998;28;20060;-65
2021/12/02 11:55:59;;;;;;;0.98;0.20;;;8.30;91.50;;;;;;5092723;28;20024;-65
2021/12/02 11:58:25;;;;;;;0.93;0.20;;;8.20;91.90;;;;;;5072914;28;20537;-65
2021/12/02 12:00:52;;;;;;;0.60;0.30;;;8.20;92.10;;;;;;5072410;28;20059;-65
2021/12/02 12:03:42;;;;;;;1.17;0.20;;;8.20;92.10;;;;;;5090414;28;20016;-65
2021/12/02 12:06:10;;;;;;;0.50;0.10;;;8.30;92.20;;;;;;5089367;28;20053;-65
2021/12/02 12:08:41;;;;;;;0.20;0.17;;;8.40;92.20;;;;;;5090114;28;20059;-65
2021/12/02 12:11:22;;;;;;;0.57;0.20;;;8.40;91.80;;;;;;5089717;28;20354;-65
2021/12/02 12:13:55;;;;;;;0.50;0.13;;;8.20;91.70;;;;;;5091725;28;20070;-65
2021/12/02 12:16:23;;;;;;;0.73;0.22;;;8.00;92.00;;;;;;5092412;28;20506;-65
2021/12/02 12:18:49;;;;;;;1.42;0.25;;;8.00;92.20;;;;;;5072285;28;20016;-65
2021/12/02 12:22:04;;;;;;;;;;;;;;;;;;;;;
2021/12/02 12:24:43;;;;;;;0.28;0.20;;;8.60;92.30;;;;;;5056628;28;20028;-65
2021/12/02 12:27:13;;;;;;;0.17;0.10;;;9.50;91.80;;;;;;5072399;28;20081;-65
2021/12/02 12:29:49;;;;;;;;;;;;;;;;;;;;;
2021/12/02 12:32:26;;;;;;;1.73;0.20;;;11.70;90.50;;;;;;5082096;28;19934;-66
2021/12/02 12:35:01;;;;;;;0.32;0.13;;;13.60;85.20;;;;;;5072363;28;20023;-66
2021/12/02 12:38:18;;;;;;;;;;;;;;;;;;;;;
2021/12/02 12:40:43;;;;;;;1.02;0.20;;;15.60;75.70;;;;;;5086486;28;20024;-66
2021/12/02 12:43:34;;;;;;;;;;;;;;;;;;;;;
2021/12/02 12:46:16;;;;;;;0.40;0.20;;;15.90;70.60;;;;;;5090067;28;20019;-66
2021/12/02 12:48:42;;;;;;;0.68;0.20;;;16.60;68.60;;;;;;5092416;28;20028;-66
2021/12/02 12:51:32;;;;;;;0.30;0.20;;;17.70;66.50;;;;;;5074336;28;20028;-66
2021/12/02 12:54:00;;;;;;;0.30;0.20;;;18.50;63.90;;;;;;5092436;28;20074;-66
2021/12/02 12:56:30;;;;;;;1.95;0.22;;;19.30;60.80;;;;;;5090930;28;20426;-66
2021/12/02 12:58:59;;;;;;;0.52;0.20;;;19.80;58.80;;;;;;5092493;28;20020;-66
2021/12/02 13:01:26;;;;;;;1.35;0.40;;;20.40;57.00;;;;;;5092320;28;20034;-66
2021/12/02 13:04:26;;;;;;;0.40;0.20;;;21.00;55.00;;;;;;5090725;28;20089;-66
2021/12/02 13:06:52;;;;;;;;;;;21.40;52.70;;;;;;5074446;28;20020;-66
2021/12/02 13:09:49;;;;;;;0.30;0.20;;;21.80;51.50;;;;;;5092344;28;19904;-67
2021/12/02 13:12:19;;;;;;;1.10;0.30;;;22.10;50.40;;;;;;5074347;28;20035;-66
2021/12/02 13:14:48;;;;;;;0.75;0.30;;;22.30;49.80;;;;;;5091234;28;20375;-66
2021/12/02 13:18:12;;;;;;;0.85;0.30;;;22.60;49.70;;;;;;5074154;28;20020;-66
2021/12/02 13:27:38;;;;;;;0.80;0.40;;;22.50;47.70;;;;;;5009912;28;20499;-66
2021/12/02 13:30:13;;;;;;;0.63;0.40;;;22.50;46.60;;;;;;5091768;28;20052;-66
2021/12/02 13:32:38;;;;;;;1.00;0.30;;;22.30;46.80;;;;;;5093398;28;20028;-66
2021/12/02 13:35:05;;;;;;;1.00;0.40;;;22.40;47.40;;;;;;5095542;28;20548;-66
2021/12/02 13:37:30;;;;;;;1.00;0.40;;;22.50;47.00;;;;;;5076719;28;20529;-66
2021/12/02 13:39:55;;;;;;;1.38;0.40;;;22.50;46.70;;;;;;5095486;28;20095;-67
2021/12/02 13:42:21;;;;;;;0.70;0.45;;;22.40;46.70;;;;;;5077272;28;20025;-66
2021/12/02 13:47:20;;;;;;;1.58;0.70;;;22.30;46.30;;;;;;5090902;28;20048;-66
2021/12/02 13:49:55;;;;;;;1.08;0.55;;;22.20;46.40;;;;;;5094139;28;20051;-66
2021/12/02 13:52:36;;;;;;;2.63;0.40;;;21.90;47.20;;;;;;5095160;28;20021;-66
2021/12/02 13:55:07;;;;;;;1.17;0.57;;;21.80;48.20;;;;;;5093302;28;20028;-67
2021/12/02 13:57:41;;;;;;;1.02;0.50;;;21.70;47.70;;;;;;5095124;28;20027;-66
2021/12/02 14:00:13;;;;;;;1.50;0.50;;;21.60;47.70;;;;;;5092751;28;20487;-66
2021/12/02 14:02:39;;;;;;;2.25;0.40;;;21.30;48.70;;;;;;5072849;28;20028;-66
2021/12/02 14:05:11;;;;;;;0.60;0.30;;;20.80;49.30;;;;;;5074480;28;20083;-66
2021/12/02 14:07:39;;;;;;;1.80;0.40;;;20.20;49.40;;;;;;5074663;28;20476;-66
2021/12/02 14:10:37;;;;;;;1.38;0.40;;;19.30;50.70;;;;;;5074551;28;20033;-66
2021/12/02 14:13:06;;;;;;;2.28;0.47;;;18.40;52.10;;;;;;5082208;28;20040;-66
2021/12/02 14:15:33;;;;;;;1.02;0.30;;;17.40;53.80;;;;;;5094923;28;20484;-66